createdAt,value
2022-12-11T00:01:14.820Z,3.23
2022-12-11T00:03:43.244Z,3.14
2022-12-11T00:06:15.127Z,3.15
2022-12-11T00:08:43.899Z,3.06
2022-12-11T00:11:13.581Z,3.12
2022-12-11T00:13:41.948Z,3.10
2022-12-11T00:16:10.775Z,2.88
2022-12-11T00:18:39.070Z,2.86
2022-12-11T00:21:09.271Z,2.90
2022-12-11T00:23:38.534Z,2.90
2022-12-11T00:26:08.424Z,2.84
2022-12-11T00:28:36.819Z,2.82
2022-12-11T00:31:06.371Z,3.07
2022-12-11T00:33:34.505Z,2.82
2022-12-11T00:36:02.738Z,3.01
2022-12-11T00:38:31.003Z,2.77
2022-12-11T00:40:59.644Z,2.66
2022-12-11T00:43:27.637Z,2.74
2022-12-11T00:45:56.083Z,2.62
2022-12-11T00:48:24.162Z,2.67
2022-12-11T00:50:55.079Z,2.63
2022-12-11T00:53:23.458Z,2.71
2022-12-11T00:55:51.569Z,2.64
2022-12-11T00:58:19.865Z,2.58
2022-12-11T01:00:50.158Z,2.45
2022-12-11T01:03:18.438Z,2.51
2022-12-11T01:05:56.364Z,2.61
2022-12-11T01:08:24.800Z,2.53
2022-12-11T01:11:01.753Z,2.39
2022-12-11T01:13:30.032Z,2.56
2022-12-11T01:15:58.036Z,2.50
2022-12-11T01:18:26.577Z,2.39
2022-12-11T01:20:55.097Z,2.34
2022-12-11T01:23:23.061Z,2.23
2022-12-11T01:25:51.058Z,2.12
2022-12-11T01:28:19.380Z,2.12
2022-12-11T01:30:47.340Z,2.04
2022-12-11T01:33:15.368Z,2.14
2022-12-11T01:35:43.684Z,1.92
2022-12-11T01:38:11.699Z,1.86
2022-12-11T01:40:52.286Z,1.98
2022-12-11T01:43:20.576Z,2.00
2022-12-11T01:45:49.213Z,1.69
2022-12-11T01:48:29.345Z,1.67
2022-12-11T01:51:03.688Z,1.36
2022-12-11T01:53:37.774Z,1.62
2022-12-11T01:56:07.141Z,1.68
2022-12-11T01:58:40.823Z,1.54
2022-12-11T02:01:12.266Z,1.56
2022-12-11T02:03:40.765Z,1.55
2022-12-11T02:06:34.714Z,1.60
2022-12-11T02:09:04.043Z,1.51
2022-12-11T02:11:41.461Z,1.42
2022-12-11T02:14:32.529Z,1.51
2022-12-11T02:17:15.168Z,1.55
2022-12-11T02:20:09.246Z,1.62
2022-12-11T02:23:22.743Z,1.39
2022-12-11T02:25:53.564Z,1.65
2022-12-11T02:28:35.656Z,1.39
2022-12-11T02:31:12.960Z,1.62
2022-12-11T02:33:49.703Z,1.36
2022-12-11T02:36:19.632Z,1.25
2022-12-11T02:38:50.874Z,1.22
2022-12-11T02:41:20.081Z,1.41
2022-12-11T02:43:49.914Z,1.33
2022-12-11T02:46:19.902Z,1.22
2022-12-11T02:48:50.085Z,1.08
2022-12-11T02:51:22.725Z,1.25
2022-12-11T02:53:54.085Z,1.22
2022-12-11T02:56:31.439Z,1.23
2022-12-11T02:59:03.630Z,1.30
2022-12-11T03:01:31.754Z,1.16
2022-12-11T03:04:00.227Z,1.17
2022-12-11T03:06:33.517Z,1.30
2022-12-11T03:09:01.805Z,1.23
2022-12-11T03:11:29.791Z,1.25
2022-12-11T03:13:58.042Z,1.12
2022-12-11T03:16:37.969Z,1.27
2022-12-11T03:19:36.568Z,1.35
2022-12-11T03:22:07.556Z,1.29
2022-12-11T03:24:43.590Z,1.26
2022-12-11T03:27:33.842Z,1.32
2022-12-11T03:30:12.235Z,1.24
2022-12-11T03:32:53.941Z,1.20
2022-12-11T03:35:33.214Z,1.16
2022-12-11T03:38:06.019Z,1.21
2022-12-11T03:40:36.068Z,1.33
2022-12-11T03:43:05.386Z,1.17
2022-12-11T03:45:34.050Z,1.24
2022-12-11T03:48:03.197Z,1.12
2022-12-11T03:50:32.491Z,1.09
2022-12-11T03:53:01.313Z,1.14
2022-12-11T03:55:30.102Z,1.21
2022-12-11T03:57:58.666Z,1.18
2022-12-11T04:00:26.716Z,1.28
2022-12-11T04:03:14.092Z,1.19
2022-12-11T04:05:44.028Z,1.18
2022-12-11T04:08:12.703Z,0.96
2022-12-11T04:10:41.295Z,1.18
2022-12-11T04:13:10.450Z,1.12
2022-12-11T04:15:39.603Z,1.09
2022-12-11T04:18:27.049Z,1.06
2022-12-11T04:21:15.207Z,1.23
2022-12-11T04:24:01.756Z,1.38
2022-12-11T04:26:30.061Z,1.21
2022-12-11T04:28:57.870Z,1.04
2022-12-11T04:31:26.071Z,1.16
2022-12-11T04:33:54.367Z,1.13
2022-12-11T04:36:22.321Z,1.23
2022-12-11T04:38:50.468Z,1.23
2022-12-11T04:41:18.805Z,1.26
2022-12-11T04:43:46.802Z,1.44
2022-12-11T04:46:17.764Z,1.52
2022-12-11T04:48:46.824Z,1.37
2022-12-11T04:51:15.237Z,1.32
2022-12-11T04:53:43.513Z,1.41
2022-12-11T04:56:14.081Z,1.27
2022-12-11T04:58:43.251Z,1.28
2022-12-11T05:01:20.460Z,1.12
2022-12-11T05:03:48.558Z,1.27
2022-12-11T05:06:17.175Z,1.35
2022-12-11T05:08:45.635Z,1.18
2022-12-11T05:11:15.324Z,1.09
2022-12-11T05:13:44.275Z,1.48
2022-12-11T05:16:15.041Z,1.63
2022-12-11T05:18:43.727Z,1.36
2022-12-11T05:21:13.121Z,1.37
2022-12-11T05:23:41.735Z,1.24
2022-12-11T05:26:18.937Z,1.07
2022-12-11T05:28:47.710Z,1.30
2022-12-11T05:31:18.740Z,1.22
2022-12-11T05:33:49.182Z,1.44
2022-12-11T05:36:27.985Z,1.38
2022-12-11T05:38:55.890Z,1.34
2022-12-11T05:41:26.177Z,1.28
2022-12-11T05:43:54.266Z,1.40
2022-12-11T05:46:26.854Z,1.39
2022-12-11T05:48:57.271Z,1.31
2022-12-11T05:51:25.467Z,1.13
2022-12-11T05:53:54.643Z,1.16
2022-12-11T05:56:26.478Z,1.18
2022-12-11T05:58:55.113Z,1.18
2022-12-11T06:01:38.138Z,1.21
2022-12-11T06:04:07.341Z,1.25
2022-12-11T06:06:36.152Z,1.19
2022-12-11T06:09:05.286Z,0.99
2022-12-11T06:11:34.994Z,1.33
2022-12-11T06:14:03.803Z,1.25
2022-12-11T06:16:32.528Z,1.31
2022-12-11T06:19:00.988Z,1.22
2022-12-11T06:21:31.066Z,1.04
2022-12-11T06:24:01.758Z,1.11
2022-12-11T06:26:30.699Z,1.22
2022-12-11T06:28:58.918Z,1.18
2022-12-11T06:31:26.896Z,1.09
2022-12-11T06:33:55.423Z,1.27
2022-12-11T06:36:24.449Z,1.09
2022-12-11T06:38:53.000Z,0.97
2022-12-11T06:41:21.461Z,1.08
2022-12-11T06:43:49.434Z,1.18
2022-12-11T06:46:19.900Z,1.21
2022-12-11T06:48:49.461Z,1.07
2022-12-11T06:51:22.647Z,1.17
2022-12-11T06:53:53.130Z,1.05
2022-12-11T06:56:21.603Z,1.04
2022-12-11T06:58:49.933Z,1.20
2022-12-11T07:01:19.585Z,1.04
2022-12-11T07:03:48.683Z,0.77
2022-12-11T07:06:16.873Z,1.11
2022-12-11T07:08:45.778Z,1.43
2022-12-11T07:11:15.525Z,1.24
2022-12-11T07:13:43.687Z,1.23
2022-12-11T07:16:13.614Z,1.43
2022-12-11T07:18:43.840Z,1.21
2022-12-11T07:21:13.222Z,1.22
2022-12-11T07:23:41.756Z,1.27
2022-12-11T07:26:12.908Z,1.35
2022-12-11T07:28:41.858Z,1.50
2022-12-11T07:31:15.054Z,1.41
2022-12-11T07:33:44.129Z,1.35
2022-12-11T07:36:13.900Z,1.36
2022-12-11T07:38:42.186Z,1.61
2022-12-11T07:41:12.791Z,1.43
2022-12-11T07:43:41.751Z,1.66
2022-12-11T07:46:16.111Z,1.72
2022-12-11T07:48:46.198Z,1.45
2022-12-11T07:51:28.118Z,1.47
2022-12-11T07:54:16.796Z,1.70
2022-12-11T07:56:49.864Z,1.43
2022-12-11T07:59:21.429Z,1.36
2022-12-11T08:01:49.399Z,1.59
2022-12-11T08:04:17.731Z,1.54
2022-12-11T08:06:45.722Z,1.64
2022-12-11T08:09:20.959Z,1.77
2022-12-11T08:11:50.989Z,1.65
2022-12-11T08:14:19.781Z,1.75
2022-12-11T08:16:48.403Z,1.89
2022-12-11T08:19:16.960Z,1.85
2022-12-11T08:21:45.263Z,2.00
2022-12-11T08:24:13.287Z,1.75
2022-12-11T08:26:41.647Z,1.86
2022-12-11T08:29:11.463Z,1.78
2022-12-11T08:31:41.259Z,2.00
2022-12-11T08:34:09.693Z,1.93
2022-12-11T08:36:37.862Z,1.71
2022-12-11T08:39:05.923Z,1.88
2022-12-11T08:41:37.427Z,1.97
2022-12-11T08:44:06.160Z,1.86
2022-12-11T08:46:35.833Z,1.97
2022-12-11T08:49:04.228Z,1.80
2022-12-11T08:51:33.006Z,1.90
2022-12-11T08:54:01.500Z,1.83
2022-12-11T08:56:30.032Z,2.06
2022-12-11T08:59:00.954Z,1.78
2022-12-11T09:01:29.712Z,1.86
2022-12-11T09:03:58.342Z,2.00
2022-12-11T09:06:28.568Z,2.08
2022-12-11T09:09:00.024Z,2.00
2022-12-11T09:11:30.725Z,2.13
2022-12-11T09:14:05.220Z,2.14
2022-12-11T09:16:38.059Z,2.11
2022-12-11T09:19:08.627Z,2.02
2022-12-11T09:21:36.657Z,1.99
2022-12-11T09:24:05.006Z,2.11
2022-12-11T09:26:33.371Z,1.88
2022-12-11T09:29:04.065Z,1.97
2022-12-11T09:31:34.496Z,1.90
2022-12-11T09:34:07.877Z,1.76
2022-12-11T09:36:36.345Z,1.93
2022-12-11T09:39:06.624Z,2.18
2022-12-11T09:42:12.418Z,2.04
2022-12-11T09:44:49.786Z,1.97
2022-12-11T09:47:26.201Z,1.94
2022-12-11T09:50:15.331Z,1.98
2022-12-11T09:53:20.764Z,2.17
2022-12-11T09:55:54.749Z,2.01
2022-12-11T09:59:00.329Z,1.98
2022-12-11T10:01:58.753Z,2.01
2022-12-11T10:04:33.225Z,2.02
2022-12-11T10:07:17.191Z,2.08
2022-12-11T10:10:00.887Z,1.93
2022-12-11T10:12:55.828Z,1.86
2022-12-11T10:15:24.177Z,2.13
2022-12-11T10:17:56.652Z,1.89
2022-12-11T10:20:36.720Z,1.75
2022-12-11T10:23:07.976Z,1.53
2022-12-11T10:25:38.303Z,1.71
2022-12-11T10:28:18.419Z,2.04
2022-12-11T10:31:03.219Z,2.02
2022-12-11T10:33:57.459Z,2.06
2022-12-11T10:36:32.190Z,1.89
2022-12-11T10:39:00.797Z,1.87
2022-12-11T10:41:39.312Z,2.08
2022-12-11T10:44:26.972Z,1.97
2022-12-11T10:47:05.372Z,1.93
2022-12-11T10:49:35.888Z,1.70
2022-12-11T10:52:21.397Z,1.74
2022-12-11T10:54:58.935Z,1.89
2022-12-11T10:57:32.986Z,1.57
2022-12-11T11:00:01.295Z,1.82
2022-12-11T11:02:33.274Z,1.72
2022-12-11T11:05:12.758Z,1.74
2022-12-11T11:07:41.767Z,1.97
2022-12-11T11:10:13.778Z,1.92
2022-12-11T11:12:49.370Z,1.95
2022-12-11T11:15:25.645Z,1.54
2022-12-11T11:17:59.035Z,1.87
2022-12-11T11:20:30.305Z,2.02
2022-12-11T11:23:01.067Z,1.90
2022-12-11T11:25:33.542Z,1.95
2022-12-11T11:28:04.694Z,1.93
2022-12-11T11:30:36.857Z,2.10
2022-12-11T11:33:17.388Z,2.10
2022-12-11T11:36:02.632Z,1.97
2022-12-11T11:38:59.949Z,2.19
2022-12-11T11:41:51.436Z,1.87
2022-12-11T11:44:35.211Z,2.12
2022-12-11T11:47:17.919Z,2.11
2022-12-11T11:50:09.991Z,2.22
2022-12-11T11:52:45.698Z,1.63
2022-12-11T11:55:42.565Z,1.95
2022-12-11T11:58:23.137Z,2.11
2022-12-11T12:00:54.923Z,2.13
2022-12-11T12:03:24.768Z,2.20
2022-12-11T12:06:26.757Z,1.96
2022-12-11T12:09:13.884Z,1.91
2022-12-11T12:11:56.593Z,2.13
2022-12-11T12:14:52.639Z,2.22
2022-12-11T12:17:50.574Z,2.11
2022-12-11T12:20:42.062Z,2.01
2022-12-11T12:23:49.783Z,2.30
2022-12-11T12:26:34.599Z,2.37
2022-12-11T12:29:21.153Z,2.25
2022-12-11T12:32:08.054Z,2.58
2022-12-11T12:34:49.085Z,2.59
2022-12-11T12:37:44.068Z,2.06
2022-12-11T12:40:25.114Z,2.33
2022-12-11T12:42:55.827Z,2.38
2022-12-11T12:45:43.289Z,2.32
2022-12-11T12:48:11.809Z,2.51
2022-12-11T12:50:45.452Z,2.02
2022-12-11T12:53:28.627Z,2.27
2022-12-11T12:55:57.074Z,2.61
2022-12-11T12:58:28.625Z,2.73
2022-12-11T13:01:15.108Z,2.72
2022-12-11T13:04:47.421Z,2.39
2022-12-11T13:07:27.450Z,2.38
2022-12-11T13:10:07.139Z,2.32
2022-12-11T13:12:46.556Z,2.52
2022-12-11T13:15:26.944Z,2.62
2022-12-11T13:17:55.196Z,2.51
2022-12-11T13:20:27.871Z,2.30
2022-12-11T13:23:10.430Z,2.50
2022-12-11T13:25:57.051Z,2.54
2022-12-11T13:28:28.450Z,2.81
2022-12-11T13:31:27.103Z,2.56
2022-12-11T13:33:56.619Z,2.38
2022-12-11T13:36:29.853Z,2.50
2022-12-11T13:39:05.396Z,2.25
2022-12-11T13:41:35.943Z,2.36
2022-12-11T13:44:05.170Z,2.54
2022-12-11T13:46:36.309Z,1.98
2022-12-11T13:49:07.213Z,2.20
2022-12-11T13:51:37.259Z,2.60
2022-12-11T13:54:17.701Z,2.52
2022-12-11T13:57:09.209Z,2.59
2022-12-11T13:59:41.594Z,2.05
2022-12-11T14:02:36.162Z,2.43
2022-12-11T14:05:07.893Z,2.00
2022-12-11T14:07:39.504Z,2.36
2022-12-11T14:10:17.521Z,2.45
2022-12-11T14:13:07.108Z,2.03
2022-12-11T14:15:36.779Z,2.07
2022-12-11T14:18:05.599Z,2.16
2022-12-11T14:20:34.532Z,2.08
2022-12-11T14:23:16.768Z,2.26
2022-12-11T14:25:53.627Z,2.32
2022-12-11T14:28:23.543Z,2.09
2022-12-11T14:30:52.829Z,2.53
2022-12-11T14:33:23.703Z,2.27
2022-12-11T14:35:53.204Z,2.11
2022-12-11T14:38:24.786Z,2.30
2022-12-11T14:40:58.802Z,2.18
2022-12-11T14:43:31.639Z,2.09
2022-12-11T14:46:04.553Z,2.05
2022-12-11T14:48:42.865Z,2.11
2022-12-11T14:51:15.282Z,2.06
2022-12-11T14:53:45.888Z,1.92
2022-12-11T14:56:26.513Z,2.16
2022-12-11T14:59:01.434Z,2.07
2022-12-11T15:01:32.690Z,2.03
2022-12-11T15:04:18.289Z,2.18
2022-12-11T15:06:48.758Z,2.16
2022-12-11T15:09:36.424Z,1.83
2022-12-11T15:12:13.892Z,1.84
2022-12-11T15:14:49.360Z,1.76
2022-12-11T15:17:18.991Z,1.64
2022-12-11T15:19:52.408Z,1.60
2022-12-11T15:22:26.362Z,1.76
2022-12-11T15:24:54.843Z,1.98
2022-12-11T15:27:34.532Z,1.93
2022-12-11T15:30:18.333Z,2.04
2022-12-11T15:32:47.075Z,1.55
2022-12-11T15:35:26.726Z,1.68
2022-12-11T15:37:58.938Z,1.83
2022-12-11T15:40:27.851Z,1.67
2022-12-11T15:42:56.992Z,1.77
2022-12-11T15:45:28.753Z,1.44
2022-12-11T15:48:00.479Z,1.57
2022-12-11T15:50:31.279Z,1.72
2022-12-11T15:53:00.917Z,1.78
2022-12-11T15:55:35.286Z,1.83
2022-12-11T15:58:06.037Z,1.55
2022-12-11T16:00:37.715Z,1.55
2022-12-11T16:03:06.066Z,1.40
2022-12-11T16:05:34.200Z,1.58
2022-12-11T16:08:02.244Z,1.78
2022-12-11T16:10:30.686Z,1.52
2022-12-11T16:12:59.920Z,1.39
2022-12-11T16:15:27.890Z,1.51
2022-12-11T16:18:04.003Z,1.44
2022-12-11T16:20:32.307Z,1.58
2022-12-11T16:23:00.788Z,1.19
2022-12-11T16:25:28.969Z,1.41
2022-12-11T16:28:00.850Z,1.77
2022-12-11T16:30:31.241Z,1.59
2022-12-11T16:32:59.420Z,1.58
2022-12-11T16:35:29.226Z,1.33
2022-12-11T16:37:57.623Z,1.53
2022-12-11T16:40:25.732Z,1.30
2022-12-11T16:42:54.442Z,1.42
2022-12-11T16:45:26.488Z,1.43
2022-12-11T16:47:55.222Z,1.38
2022-12-11T16:50:24.250Z,1.07
2022-12-11T16:52:52.199Z,1.56
2022-12-11T16:55:22.479Z,1.51
2022-12-11T16:57:51.206Z,1.22
2022-12-11T17:00:19.993Z,1.50
2022-12-11T17:02:48.288Z,1.31
2022-12-11T17:05:16.737Z,1.37
2022-12-11T17:07:47.761Z,1.51
2022-12-11T17:10:15.750Z,1.33
2022-12-11T17:12:44.180Z,1.06
2022-12-11T17:15:12.572Z,1.05
2022-12-11T17:17:43.067Z,1.02
2022-12-11T17:20:11.521Z,1.11
2022-12-11T17:22:39.555Z,1.33
2022-12-11T17:25:08.128Z,1.37
2022-12-11T17:27:37.975Z,1.34
2022-12-11T17:30:06.574Z,1.08
2022-12-11T17:32:34.659Z,1.00
2022-12-11T17:35:03.044Z,1.17
2022-12-11T17:37:31.267Z,1.20
2022-12-11T17:39:59.260Z,1.07
2022-12-11T17:42:27.736Z,1.33
2022-12-11T17:44:55.923Z,1.03
2022-12-11T17:47:23.947Z,1.13
2022-12-11T17:49:52.447Z,1.13
2022-12-11T17:52:20.495Z,1.12
2022-12-11T17:54:48.565Z,1.21
2022-12-11T17:57:17.314Z,1.00
2022-12-11T17:59:45.556Z,0.78
2022-12-11T18:02:13.736Z,0.68
2022-12-11T18:04:42.561Z,0.53
2022-12-11T18:07:10.710Z,0.64
2022-12-11T18:09:42.547Z,0.90
2022-12-11T18:12:11.125Z,1.00
2022-12-11T18:14:39.550Z,1.03
2022-12-11T18:17:07.742Z,1.00
2022-12-11T18:19:37.399Z,1.02
2022-12-11T18:22:08.362Z,1.08
2022-12-11T18:24:36.986Z,1.07
2022-12-11T18:27:05.136Z,1.07
2022-12-11T18:29:33.265Z,1.11
2022-12-11T18:32:01.948Z,1.23
2022-12-11T18:34:30.252Z,1.05
2022-12-11T18:36:58.454Z,1.07
2022-12-11T18:39:26.963Z,1.21
2022-12-11T18:42:24.248Z,0.96
2022-12-11T18:44:45.376Z,0.97
2022-12-11T18:47:13.276Z,0.66
2022-12-11T18:49:44.364Z,0.74
2022-12-11T18:52:13.213Z,0.99
2022-12-11T18:54:41.653Z,0.99
2022-12-11T18:57:10.010Z,0.69
2022-12-11T18:59:39.734Z,0.83
2022-12-11T19:02:08.087Z,0.93
2022-12-11T19:04:37.829Z,0.90
2022-12-11T19:07:06.282Z,1.00
2022-12-11T19:09:38.044Z,1.04
2022-12-11T19:12:07.337Z,0.92
2022-12-11T19:14:35.445Z,1.07
2022-12-11T19:17:03.738Z,0.90
2022-12-11T19:19:32.002Z,1.04
2022-12-11T19:22:00.514Z,0.95
2022-12-11T19:24:28.661Z,1.18
2022-12-11T19:26:57.704Z,0.89
2022-12-11T19:29:28.298Z,1.15
2022-12-11T19:31:56.944Z,1.11
2022-12-11T19:34:25.624Z,1.26
2022-12-11T19:36:54.075Z,1.05
2022-12-11T19:39:22.791Z,0.92
2022-12-11T19:41:51.520Z,1.01
2022-12-11T19:44:19.594Z,1.04
2022-12-11T19:46:48.234Z,1.14
2022-12-11T19:49:16.466Z,0.90
2022-12-11T19:51:45.199Z,1.33
2022-12-11T19:54:16.026Z,0.97
2022-12-11T19:56:44.760Z,0.84
2022-12-11T19:59:16.868Z,0.96
2022-12-11T20:01:48.241Z,1.00
2022-12-11T20:04:17.523Z,0.97
2022-12-11T20:06:46.638Z,1.13
2022-12-11T20:09:15.716Z,0.93
2022-12-11T20:11:45.156Z,0.79
2022-12-11T20:14:22.443Z,1.19
2022-12-11T20:19:42.024Z,0.90
2022-12-11T20:22:10.704Z,0.86
2022-12-11T20:24:38.707Z,1.04
2022-12-11T20:27:06.694Z,1.04
2022-12-11T20:29:35.060Z,1.18
2022-12-11T20:32:03.456Z,0.87
2022-12-11T20:34:31.575Z,0.72
2022-12-11T20:37:00.646Z,0.71
2022-12-11T20:39:29.357Z,0.72
2022-12-11T20:41:57.439Z,0.75
2022-12-11T20:44:26.129Z,0.93
2022-12-11T20:46:54.907Z,0.58
2022-12-11T20:49:23.536Z,0.64
2022-12-11T20:51:52.297Z,0.28
2022-12-11T20:54:20.464Z,0.24
2022-12-11T20:56:48.510Z,0.38
2022-12-11T20:59:17.864Z,0.51
2022-12-11T21:01:46.068Z,0.49
2022-12-11T21:04:14.188Z,0.59
2022-12-11T21:06:42.619Z,0.62
2022-12-11T21:09:15.525Z,0.58
2022-12-11T21:11:44.457Z,0.57
2022-12-11T21:14:13.815Z,0.23
2022-12-11T21:16:42.187Z,-0.10
2022-12-11T21:19:17.093Z,0.17
2022-12-11T21:21:46.141Z,0.33
2022-12-11T21:24:20.279Z,0.38
2022-12-11T21:26:48.853Z,0.44
2022-12-11T21:29:17.747Z,0.56
2022-12-11T21:31:45.974Z,0.53
2022-12-11T21:34:14.382Z,0.25
2022-12-11T21:36:42.755Z,0.30
2022-12-11T21:39:12.358Z,0.15
2022-12-11T21:41:41.166Z,0.40
2022-12-11T21:46:59.319Z,0.06
2022-12-11T21:49:27.686Z,0.15
2022-12-11T21:51:55.821Z,0.03
2022-12-11T21:54:24.089Z,-0.35
2022-12-11T21:56:54.369Z,0.01
2022-12-11T21:59:22.398Z,0.26
2022-12-11T22:01:50.354Z,0.03
2022-12-11T22:04:19.854Z,-0.12
2022-12-11T22:06:47.720Z,-0.15
2022-12-11T22:09:16.461Z,-0.13
2022-12-11T22:11:46.036Z,0.03
2022-12-11T22:14:15.432Z,-0.14
2022-12-11T22:16:44.148Z,-0.04
2022-12-11T22:19:12.707Z,-0.41
2022-12-11T22:21:41.040Z,-0.61
2022-12-11T22:24:09.187Z,-0.28
2022-12-11T22:26:37.452Z,-0.63
2022-12-11T22:29:05.446Z,-0.43
2022-12-11T22:31:33.462Z,-0.50
2022-12-11T22:34:01.745Z,-0.52
2022-12-11T22:36:29.668Z,-0.75
2022-12-11T22:38:57.470Z,-0.86
2022-12-11T22:41:28.356Z,-0.62
2022-12-11T22:43:57.350Z,-0.81
2022-12-11T22:46:28.415Z,-1.08
2022-12-11T22:48:56.306Z,-1.04
2022-12-11T22:51:24.119Z,-0.93
2022-12-11T22:53:52.360Z,-0.65
2022-12-11T22:56:20.358Z,-0.91
2022-12-11T22:58:48.201Z,-1.02
2022-12-11T23:01:23.919Z,-0.97
2022-12-11T23:03:52.312Z,-0.85
2022-12-11T23:06:23.002Z,-0.81
2022-12-11T23:08:51.905Z,-0.68
2022-12-11T23:11:27.811Z,-0.85
2022-12-11T23:13:55.701Z,-0.82
2022-12-11T23:16:26.082Z,-0.83
2022-12-11T23:18:55.033Z,-0.84
2022-12-11T23:21:24.093Z,-0.90
2022-12-11T23:23:52.287Z,-0.80
2022-12-11T23:26:21.150Z,-1.11
2022-12-11T23:28:50.133Z,-1.20
2022-12-11T23:31:18.242Z,-1.16
2022-12-11T23:33:46.165Z,-1.32
2022-12-11T23:36:14.667Z,-1.19
2022-12-11T23:38:42.578Z,-1.10
2022-12-11T23:41:12.696Z,-1.26
2022-12-11T23:43:41.906Z,-1.11
2022-12-11T23:46:18.236Z,-1.25
2022-12-11T23:48:46.600Z,-1.20
2022-12-11T23:51:16.486Z,-1.25
2022-12-11T23:53:44.999Z,-1.21
2022-12-11T23:56:28.576Z,-1.33
2022-12-11T23:58:56.762Z,-1.13
